KLQK

Pickens County Airport

Pickens, South Carolina, USA
METAR KLQK 211255Z AUTO 19007KT 10SM BKN009 OVC017 19/19 A3042 RMK AO2 T01860186
Observed Flight Rules
Feb-21 @ 12:55 UTC (25 minutes ago) Instrument Flight Rules
Wind Visibility Clouds
190° at 7 knots 10 miles
  • Broken at 900' AGL
  • Overcast at 1,700' AGL
Temperatures Readings
Current 19°C / 66°F
Dewpoint 19°C / 66°F
Humidity 100%
Altimeter 30.42" Hg
Pressure 1030 hPa
Elevation 309
METAR KLQK 211255Z AUTO 19007KT 10SM BKN009 OVC017 19/19 A3042 RMK AO2 T01860186
Observed Flight Rules
Feb-21 @ 12:55 UTC
(25 minutes ago)
IFR
Wind Visibility
190° at 7 knots 10 miles
Clouds
  • Broken at 900' AGL
  • Overcast at 1,700' AGL
Temperature Dewpoint
19°C / 66°F 19°C / 66°F
Humidity Altimeter Pressure
100% 30.42" Hg 1030 hPa